Airfield :
LOGIN :

Register | Disclaimer

   EN    FR    IT 

 










Legend :    VFR   Marginal VFR   IFR   Intensive IFR   Very Intensive IFR
Visi :
Ceiling :
>= 8 km
>= 3000ft
5 to 8 km
1000 to 3000 ft
1500m to 5 km
500 to 1000 ft
800 to 1500m
200 to 500 ft
< 800m
< 200 ft
Symbols :   Thunderstorms  Fog  Heavy snow  Heavy precipitations  Wind > 20 kt
SIGMETs :     Misc.  Thunderstorms  Icing  Turbulence  Mountain Waves  Volcanic Ashes






- Airport Elevation : 215 ft
- IATA code : ABZ


EGPD - Aberdeen / Dyce

CURRENT METAR :
  • 081950Z AUTO 24007KT 9999 NCD 04/01 Q0975 NOSIG

EXPIRED METARs :
  • 081920Z AUTO 23009KT 9999 NCD 04/01 Q0974 NOSIG
  • 081850Z AUTO 23011KT 9999 NCD 05/02 Q0974
  • 081820Z AUTO 22010KT 9999 NCD 05/02 Q0974 NOSIG
  • 081750Z AUTO 22013KT 9999 NCD 05/01 Q0974 NOSIG
  • 081720Z AUTO 23011KT 9999 NCD 05/01 Q0974 NOSIG

TAF TAF EGPD
Valid from the 08 at 18:00 until the 09 at 18:00 UTC


081656Z 0818/0918 24015KT 9999 FEW030
BECMG 0822/0824 32016KT
TEMPO 0900/0915 33025G38KT 6000 SHRA BKN012
BECMG 0915/0918 26012KT



MET'MAP, your aeronautical weather chart ! - Copyright ORBIFLY December 2007 - Disclaimer

ORBIFLY MET'MAP TEAM :

Programming & Development : Alexandra Zaïnal
Concept & original design : Baudouin d'Aumeries
Assistance for programming : Marc-Olivier Méhu
Technical & hardware support : Manuel Goepfert

Contact : metmap@orbifly.com




SOURCES & CREDITS :

   NOAA